This is the latest recevied weather packets stored in our database for station/object VK3AFQ-13. If no packets are shown the sender has not sent any weather packets the latest 10 day(s).
| Time | Temp. | Humidity | Pressure | Rain* | Wind** | Luminosity | Snow |
|---|---|---|---|---|---|---|---|
| 1777527964 | 26.67° C | 30% | 1023.9 hPa | - | - | - | - |
| 1777527063 | 26.67° C | 30% | 1024 hPa | - | - | - | - |
| 1777526163 | 26.67° C | 30% | 1024.1 hPa | - | - | - | - |
| 1777525262 | 26.67° C | 29% | 1024.3 hPa | - | - | - | - |
| 1777524364 | 26.67° C | 29% | 1024.2 hPa | - | - | - | - |
| 1777523464 | 26.67° C | 28% | 1024.1 hPa | - | - | - | - |
| 1777522564 | 26.67° C | 30% | 1024.5 hPa | - | - | - | - |
| 1777521662 | 26.11° C | 30% | 1024.6 hPa | - | - | - | - |
| 1777520763 | 26.67° C | 29% | 1024.9 hPa | - | - | - | - |
| 1777519863 | 26.11° C | 30% | 1025.1 hPa | - | - | - | - |
| 1777518964 | 25.56° C | 34% | 1025.2 hPa | - | - | - | - |
| 1777518062 | 25.56° C | 33% | 1025.4 hPa | - | - | - | - |
| 1777517164 | 25.56° C | 35% | 1025.6 hPa | - | - | - | - |
| 1777516264 | 25.56° C | 36% | 1026 hPa | - | - | - | - |
| 1777515364 | 25.56° C | 37% | 1026.2 hPa | - | - | - | - |
| 1777514462 | 25° C | 38% | 1026.2 hPa | - | - | - | - |
| 1777513564 | 24.44° C | 39% | 1026.4 hPa | - | - | - | - |
| 1777512663 | 24.44° C | 40% | 1026.7 hPa | - | - | - | - |
| 1777511764 | 24.44° C | 41% | 1026.8 hPa | - | - | - | - |
| 1777510862 | 23.89° C | 41% | 1027.1 hPa | - | - | - | - |
| 1777509963 | 23.33° C | 43% | 1027.1 hPa | - | - | - | - |
| 1777509064 | 22.22° C | 45% | 1027.2 hPa | - | - | - | - |
| 1777508164 | 21.11° C | 48% | 1027.2 hPa | - | - | - | - |
| 1777507262 | 20.56° C | 50% | 1027.2 hPa | - | - | - | - |
| 1777506364 | 20° C | 52% | 1027.5 hPa | - | - | - | - |
* Rain since midnight (hover to see other rain measurements)
** Current wind speed in m/s (hover to see current wind gust speed)